Time,TemperatureF,DewpointF,PressureIn,WindDirection,WindDirectionDegrees,WindSpeedMPH,WindSpeedGustMPH,Humidity,HourlyPrecipIn,Conditions,Clouds,dailyrainin,SoftwareType,DateUTC
2013-05-30 00:03:00,64.2,61.4,29.62,SE,140,9.7,17.7,90,0.29,,,0.05,CWS Microserver 1.4,2013-05-30 05:03:00,
2013-05-30 00:08:00,64.4,61.5,29.63,SSE,152,20.3,20.3,90,0.29,,,0.06,CWS Microserver 1.4,2013-05-30 05:08:00,
2013-05-30 00:13:00,64.5,61.3,29.64,SSE,161,18.7,22.3,89,0.26,,,0.06,CWS Microserver 1.4,2013-05-30 05:13:00,
2013-05-30 00:18:00,64.5,61.2,29.63,SSE,160,24.2,32.9,89,0.24,,,0.06,CWS Microserver 1.4,2013-05-30 05:18:00,
2013-05-30 00:23:00,64.5,61.1,29.63,SSE,163,18.1,32.9,88,0.23,,,0.06,CWS Microserver 1.4,2013-05-30 05:23:00,
2013-05-30 00:28:00,64.5,61.0,29.63,SSE,162,14.7,25.2,88,0.20,,,0.06,CWS Microserver 1.4,2013-05-30 05:28:00,
2013-05-30 00:33:00,64.4,60.9,29.63,SSE,163,13.1,25.2,88,0.15,,,0.06,CWS Microserver 1.4,2013-05-30 05:33:00,
2013-05-30 00:38:00,64.4,60.9,29.63,SSE,167,17.2,22.4,88,0.12,,,0.06,CWS Microserver 1.4,2013-05-30 05:38:00,
2013-05-30 00:48:00,64.2,60.8,29.63,SSE,162,15.3,22.5,88,0.07,,,0.06,CWS Microserver 1.4,2013-05-30 05:48:00,
2013-05-30 00:58:00,64.0,60.7,29.63,South,180,7.9,21.4,89,0.04,,,0.06,CWS Microserver 1.4,2013-05-30 05:58:00,
2013-05-30 01:03:00,63.8,60.6,29.62,South,171,9.0,17.1,89,0.01,,,0.06,CWS Microserver 1.4,2013-05-30 06:03:00,
2013-05-30 01:08:00,63.8,60.7,29.62,South,172,10.1,16.2,89,0.00,,,0.06,CWS Microserver 1.4,2013-05-30 06:08:00,
2013-05-30 01:13:00,63.8,60.8,29.62,South,169,11.9,17.2,89,0.00,,,0.06,CWS Microserver 1.4,2013-05-30 06:13:00,
2013-05-30 01:18:00,63.6,60.6,29.62,South,172,15.5,19.8,89,0.00,,,0.06,CWS Microserver 1.4,2013-05-30 06:18:00,
2013-05-30 01:23:00,63.5,60.4,29.63,South,177,15.1,19.8,89,0.00,,,0.06,CWS Microserver 1.4,2013-05-30 06:23:00,
2013-05-30 01:28:00,63.5,60.2,29.63,South,170,13.2,19.8,88,0.00,,,0.06,CWS Microserver 1.4,2013-05-30 06:28:00,
2013-05-30 01:33:00,63.3,59.8,29.62,SSE,159,14.6,19.8,88,0.00,,,0.06,CWS Microserver 1.4,2013-05-30 06:33:00,
2013-05-30 01:38:00,63.3,59.4,29.62,SSE,158,19.4,22.9,87,0.00,,,0.06,CWS Microserver 1.4,2013-05-30 06:38:00,
2013-05-30 01:43:00,63.1,59.1,29.62,SSE,153,13.8,22.9,86,0.00,,,0.06,CWS Microserver 1.4,2013-05-30 06:43:00,
2013-05-30 01:48:00,63.1,59.0,29.59,SE,142,14.4,21.7,86,0.00,,,0.06,CWS Microserver 1.4,2013-05-30 06:48:00,
2013-05-30 01:53:00,63.3,58.8,29.58,SE,141,15.5,22.2,85,0.00,,,0.06,CWS Microserver 1.4,2013-05-30 06:53:00,
2013-05-30 02:03:00,63.6,58.8,29.58,SSE,148,9.0,23.8,84,0.00,,,0.06,CWS Microserver 1.4,2013-05-30 07:03:00,
2013-05-30 02:08:00,63.6,58.9,29.58,SSE,159,8.9,18.1,84,0.00,,,0.06,CWS Microserver 1.4,2013-05-30 07:08:00,
2013-05-30 02:13:00,63.8,59.1,29.58,SSE,154,12.5,15.2,84,0.00,,,0.06,CWS Microserver 1.4,2013-05-30 07:13:00,
2013-05-30 02:18:00,64.4,59.4,29.58,South,183,8.8,17.3,83,0.00,,,0.06,CWS Microserver 1.4,2013-05-30 07:18:00,
2013-05-30 02:23:00,64.5,59.4,29.59,South,187,7.7,17.3,83,0.00,,,0.06,CWS Microserver 1.4,2013-05-30 07:23:00,
2013-05-30 02:28:00,64.4,59.4,29.60,South,179,11.4,15.1,83,0.00,,,0.06,CWS Microserver 1.4,2013-05-30 07:28:00,
2013-05-30 02:33:00,64.2,59.6,29.60,South,191,9.7,15.1,85,0.00,,,0.06,CWS Microserver 1.4,2013-05-30 07:33:00,
2013-05-30 02:38:00,64.4,60.0,29.60,SSE,168,9.0,18.3,85,0.00,,,0.06,CWS Microserver 1.4,2013-05-30 07:38:00,
2013-05-30 02:43:00,64.4,60.1,29.59,SSE,164,14.0,22.7,86,0.00,,,0.06,CWS Microserver 1.4,2013-05-30 07:43:00,
2013-05-30 02:48:00,64.4,60.4,29.59,SSE,155,15.7,22.7,86,0.00,,,0.06,CWS Microserver 1.4,2013-05-30 07:48:00,
2013-05-30 02:53:00,64.2,60.6,29.58,SSE,153,20.0,20.6,88,0.00,,,0.06,CWS Microserver 1.4,2013-05-30 07:53:00,
2013-05-30 02:58:00,64.0,60.4,29.58,SSE,158,16.3,20.7,88,0.00,,,0.06,CWS Microserver 1.4,2013-05-30 07:58:00,
2013-05-30 03:03:00,63.8,60.4,29.58,SSE,153,13.6,20.7,88,0.00,,,0.06,CWS Microserver 1.4,2013-05-30 08:03:00,
2013-05-30 03:08:00,63.6,60.3,29.57,SSE,151,12.3,20.5,89,0.00,,,0.06,CWS Microserver 1.4,2013-05-30 08:08:00,
2013-05-30 03:13:00,63.5,60.4,29.56,SSE,154,16.4,19.6,89,0.00,,,0.06,CWS Microserver 1.4,2013-05-30 08:13:00,
2013-05-30 03:18:00,63.6,60.4,29.56,SSE,150,15.1,19.8,89,0.00,,,0.06,CWS Microserver 1.4,2013-05-30 08:18:00,
2013-05-30 03:23:00,63.8,60.5,29.56,SSE,158,15.1,22.8,88,0.00,,,0.06,CWS Microserver 1.4,2013-05-30 08:23:00,
2013-05-30 03:28:00,63.8,60.4,29.56,SSE,157,19.2,22.8,88,0.00,,,0.06,CWS Microserver 1.4,2013-05-30 08:28:00,
2013-05-30 03:33:00,63.8,60.5,29.56,SSE,153,15.1,22.7,89,0.00,,,0.06,CWS Microserver 1.4,2013-05-30 08:33:00,
2013-05-30 03:38:00,64.0,60.8,29.56,SSE,152,13.4,22.7,89,0.00,,,0.06,CWS Microserver 1.4,2013-05-30 08:38:00,
2013-05-30 03:43:00,63.8,60.8,29.55,SSE,151,16.8,23.1,89,0.00,,,0.06,CWS Microserver 1.4,2013-05-30 08:43:00,
2013-05-30 03:48:00,63.8,60.9,29.55,SE,146,19.5,23.1,90,0.00,,,0.06,CWS Microserver 1.4,2013-05-30 08:48:00,
2013-05-30 03:53:00,63.6,60.6,29.54,SSE,149,14.6,20.4,90,0.00,,,0.06,CWS Microserver 1.4,2013-05-30 08:53:00,
2013-05-30 03:58:00,63.5,60.7,29.54,SSE,150,17.0,22.3,90,0.00,,,0.06,CWS Microserver 1.4,2013-05-30 08:58:00,
2013-05-30 04:03:00,63.6,60.7,29.54,SSE,148,11.4,22.3,90,0.00,,,0.06,CWS Microserver 1.4,2013-05-30 09:03:00,
2013-05-30 04:08:00,63.6,60.7,29.53,SSE,148,19.8,24.1,90,0.00,,,0.06,CWS Microserver 1.4,2013-05-30 09:08:00,
2013-05-30 04:13:00,63.8,60.8,29.53,SE,131,21.3,26.6,89,0.00,,,0.06,CWS Microserver 1.4,2013-05-30 09:13:00,
2013-05-30 04:18:00,63.8,60.6,29.53,SSE,149,25.8,30.9,89,0.01,,,0.07,CWS Microserver 1.4,2013-05-30 09:18:00,
2013-05-30 04:23:00,63.8,60.5,29.53,SSE,153,23.5,35.5,89,0.03,,,0.09,CWS Microserver 1.4,2013-05-30 09:23:00,
2013-05-30 04:28:00,63.6,60.1,29.53,SSE,157,33.1,38.1,88,0.06,,,0.12,CWS Microserver 1.4,2013-05-30 09:28:00,
2013-05-30 04:33:00,63.5,59.8,29.53,SSE,159,24.0,38.1,87,0.10,,,0.16,CWS Microserver 1.4,2013-05-30 09:33:00,
2013-05-30 04:38:00,63.1,59.4,29.52,SSE,159,29.6,39.1,87,0.14,,,0.20,CWS Microserver 1.4,2013-05-30 09:38:00,
2013-05-30 04:43:00,62.9,59.2,29.52,SSE,154,27.1,39.1,87,0.14,,,0.20,CWS Microserver 1.4,2013-05-30 09:43:00,
2013-05-30 04:48:00,63.1,59.3,29.51,SE,141,20.0,32.8,87,0.14,,,0.20,CWS Microserver 1.4,2013-05-30 09:48:00,
2013-05-30 04:53:00,63.5,59.7,29.50,SSE,151,24.4,30.8,87,0.14,,,0.20,CWS Microserver 1.4,2013-05-30 09:53:00,
2013-05-30 04:58:00,63.6,59.5,29.50,SE,146,20.2,30.0,86,0.14,,,0.20,CWS Microserver 1.4,2013-05-30 09:58:00,
2013-05-30 05:03:00,63.8,59.5,29.50,SSE,149,25.7,30.0,85,0.14,,,0.20,CWS Microserver 1.4,2013-05-30 10:03:00,
2013-05-30 05:08:00,63.6,59.2,29.50,SSE,150,23.5,27.2,85,0.14,,,0.20,CWS Microserver 1.4,2013-05-30 10:08:00,
2013-05-30 05:13:00,63.6,59.2,29.50,SE,138,17.7,26.0,85,0.14,,,0.20,CWS Microserver 1.4,2013-05-30 10:13:00,
2013-05-30 05:18:00,63.8,59.3,29.50,SSE,155,17.0,24.8,85,0.13,,,0.20,CWS Microserver 1.4,2013-05-30 10:18:00,
2013-05-30 05:23:00,64.2,59.5,29.49,SE,145,16.2,24.8,84,0.11,,,0.20,CWS Microserver 1.4,2013-05-30 10:23:00,
2013-05-30 05:28:00,64.4,59.6,29.50,SSE,149,17.1,25.7,84,0.08,,,0.20,CWS Microserver 1.4,2013-05-30 10:28:00,
2013-05-30 05:33:00,64.0,59.5,29.50,SSE,149,17.9,25.7,85,0.04,,,0.20,CWS Microserver 1.4,2013-05-30 10:33:00,
2013-05-30 05:38:00,64.0,59.6,29.50,SE,132,14.5,26.3,85,0.00,,,0.20,CWS Microserver 1.4,2013-05-30 10:38:00,
2013-05-30 05:43:00,63.8,59.6,29.51,SE,142,18.1,26.3,86,0.00,,,0.20,CWS Microserver 1.4,2013-05-30 10:43:00,
2013-05-30 05:48:00,63.8,59.7,29.51,SE,145,20.4,24.8,86,0.00,,,0.20,CWS Microserver 1.4,2013-05-30 10:48:00,
2013-05-30 05:53:00,63.8,59.7,29.51,SSE,156,17.4,24.8,86,0.00,,,0.20,CWS Microserver 1.4,2013-05-30 10:53:00,
2013-05-30 05:58:00,64.0,59.8,29.52,SSE,150,18.3,24.4,86,0.00,,,0.20,CWS Microserver 1.4,2013-05-30 10:58:00,
2013-05-30 06:03:00,64.0,59.8,29.53,SSE,159,23.7,26.3,86,0.00,,,0.20,CWS Microserver 1.4,2013-05-30 11:03:00,
2013-05-30 06:08:00,64.0,59.9,29.54,SSE,160,14.6,27.1,86,0.00,,,0.20,CWS Microserver 1.4,2013-05-30 11:08:00,
2013-05-30 06:13:00,64.2,59.9,29.54,South,171,18.7,27.5,86,0.00,,,0.20,CWS Microserver 1.4,2013-05-30 11:13:00,
2013-05-30 06:18:00,64.4,60.0,29.56,South,177,16.7,27.5,85,0.00,,,0.20,CWS Microserver 1.4,2013-05-30 11:18:00,
2013-05-30 06:23:00,64.4,60.0,29.56,South,182,17.4,25.0,85,0.00,,,0.20,CWS Microserver 1.4,2013-05-30 11:23:00,
2013-05-30 06:28:00,64.2,60.0,29.56,South,189,18.4,23.6,86,0.00,,,0.20,CWS Microserver 1.4,2013-05-30 11:28:00,
2013-05-30 06:33:00,64.4,60.1,29.56,South,182,13.2,24.1,86,0.00,,,0.20,CWS Microserver 1.4,2013-05-30 11:33:00,
2013-05-30 06:38:00,64.4,60.1,29.56,South,184,19.7,24.1,86,0.00,,,0.20,CWS Microserver 1.4,2013-05-30 11:38:00,
2013-05-30 06:48:00,64.5,60.2,29.56,South,184,14.5,21.0,85,0.00,,,0.20,CWS Microserver 1.4,2013-05-30 11:48:00,
2013-05-30 06:53:00,64.5,60.1,29.56,South,190,14.6,22.2,85,0.00,,,0.20,CWS Microserver 1.4,2013-05-30 11:53:00,
2013-05-30 06:58:00,64.7,60.3,29.57,South,190,9.6,22.2,85,0.00,,,0.20,CWS Microserver 1.4,2013-05-30 11:58:00,
2013-05-30 07:03:00,64.5,60.2,29.57,South,178,15.5,19.0,85,0.00,,,0.20,CWS Microserver 1.4,2013-05-30 12:03:00,
2013-05-30 07:08:00,64.5,60.2,29.57,South,187,9.6,19.0,86,0.00,,,0.20,CWS Microserver 1.4,2013-05-30 12:08:00,
2013-05-30 07:13:00,64.7,60.3,29.57,SSW,197,15.4,20.8,85,0.00,,,0.20,CWS Microserver 1.4,2013-05-30 12:13:00,
2013-05-30 07:18:00,64.9,60.2,29.57,SSW,201,15.6,21.6,84,0.00,,,0.20,CWS Microserver 1.4,2013-05-30 12:18:00,
2013-05-30 07:23:00,65.1,60.4,29.57,SSW,199,11.5,21.6,84,0.00,,,0.20,CWS Microserver 1.4,2013-05-30 12:23:00,
2013-05-30 07:28:00,65.1,60.2,29.57,SSW,195,11.1,20.6,84,0.00,,,0.20,CWS Microserver 1.4,2013-05-30 12:28:00,
2013-05-30 07:38:00,65.1,59.9,29.57,SSW,193,13.2,20.4,83,0.00,,,0.20,CWS Microserver 1.4,2013-05-30 12:38:00,
2013-05-30 07:43:00,65.1,60.0,29.57,SSW,197,9.6,20.5,83,0.00,,,0.20,CWS Microserver 1.4,2013-05-30 12:43:00,
2013-05-30 07:48:00,65.1,59.7,29.58,SSW,200,17.1,23.2,82,0.00,,,0.20,CWS Microserver 1.4,2013-05-30 12:48:00,
2013-05-30 07:53:00,65.1,59.7,29.58,SSW,198,12.5,26.0,82,0.00,,,0.20,CWS Microserver 1.4,2013-05-30 12:53:00,
2013-05-30 07:58:00,64.9,59.8,29.58,South,183,9.7,26.0,83,0.00,,,0.20,CWS Microserver 1.4,2013-05-30 12:58:00,
2013-05-30 08:03:00,64.9,59.5,29.58,SSW,193,11.3,19.6,82,0.00,,,0.20,CWS Microserver 1.4,2013-05-30 13:03:00,
2013-05-30 08:08:00,64.7,59.5,29.58,South,189,12.7,19.6,83,0.00,,,0.20,CWS Microserver 1.4,2013-05-30 13:08:00,
2013-05-30 08:13:00,64.7,59.5,29.58,SSW,194,10.4,17.4,83,0.00,,,0.20,CWS Microserver 1.4,2013-05-30 13:13:00,
2013-05-30 08:18:00,64.9,59.6,29.58,South,178,10.0,19.1,83,0.00,,,0.20,CWS Microserver 1.4,2013-05-30 13:18:00,
2013-05-30 08:23:00,64.9,59.8,29.59,SSW,195,9.0,19.1,83,0.00,,,0.20,CWS Microserver 1.4,2013-05-30 13:23:00,
2013-05-30 08:28:00,64.9,59.9,29.59,South,185,9.7,19.1,84,0.00,,,0.20,CWS Microserver 1.4,2013-05-30 13:28:00,
2013-05-30 08:33:00,64.9,59.7,29.59,SSW,194,9.1,19.1,83,0.00,,,0.20,CWS Microserver 1.4,2013-05-30 13:33:00,
2013-05-30 08:38:00,65.1,59.8,29.59,South,182,14.2,17.0,83,0.00,,,0.20,CWS Microserver 1.4,2013-05-30 13:38:00,
2013-05-30 08:43:00,65.3,60.1,29.59,SSW,196,13.2,17.0,83,0.00,,,0.20,CWS Microserver 1.4,2013-05-30 13:43:00,
2013-05-30 08:48:00,65.3,60.1,29.60,SSW,200,10.4,15.8,83,0.00,,,0.20,CWS Microserver 1.4,2013-05-30 13:48:00,
2013-05-30 08:53:00,65.1,60.0,29.60,South,189,10.7,17.4,83,0.00,,,0.20,CWS Microserver 1.4,2013-05-30 13:53:00,
2013-05-30 08:58:00,65.1,59.7,29.60,SSW,192,9.1,17.4,82,0.00,,,0.20,CWS Microserver 1.4,2013-05-30 13:58:00,
2013-05-30 09:03:00,65.3,59.7,29.60,SSW,203,14.0,17.7,82,0.00,,,0.20,CWS Microserver 1.4,2013-05-30 14:03:00,
2013-05-30 09:08:00,65.1,59.9,29.60,SSW,212,10.5,17.7,83,0.00,,,0.20,CWS Microserver 1.4,2013-05-30 14:08:00,
2013-05-30 09:13:00,65.1,60.0,29.61,SSW,203,13.5,16.3,83,0.00,,,0.20,CWS Microserver 1.4,2013-05-30 14:13:00,
2013-05-30 09:18:00,65.3,59.9,29.60,SSW,203,13.9,16.0,82,0.00,,,0.20,CWS Microserver 1.4,2013-05-30 14:18:00,
2013-05-30 09:23:00,65.4,59.9,29.60,South,189,8.9,16.6,82,0.00,,,0.20,CWS Microserver 1.4,2013-05-30 14:23:00,
2013-05-30 09:28:00,65.8,60.3,29.60,South,191,12.1,16.6,82,0.00,,,0.20,CWS Microserver 1.4,2013-05-30 14:28:00,
2013-05-30 09:33:00,65.8,60.0,29.61,South,184,14.9,18.4,81,0.00,,,0.20,CWS Microserver 1.4,2013-05-30 14:33:00,
2013-05-30 09:38:00,66.0,59.5,29.60,South,172,19.2,25.1,79,0.00,,,0.20,CWS Microserver 1.4,2013-05-30 14:38:00,
2013-05-30 09:43:00,66.9,60.5,29.60,South,179,26.1,26.1,80,0.00,,,0.20,CWS Microserver 1.4,2013-05-30 14:43:00,
2013-05-30 09:48:00,66.9,61.1,29.60,South,171,17.5,26.1,81,0.00,,,0.20,CWS Microserver 1.4,2013-05-30 14:48:00,
2013-05-30 09:53:00,67.1,60.7,29.60,SSE,165,18.1,26.1,79,0.00,,,0.20,CWS Microserver 1.4,2013-05-30 14:53:00,
2013-05-30 09:58:00,66.9,60.4,29.60,South,179,16.5,24.8,79,0.00,,,0.20,CWS Microserver 1.4,2013-05-30 14:58:00,
2013-05-30 10:08:00,67.2,60.7,29.60,South,177,15.2,25.7,79,0.00,,,0.20,CWS Microserver 1.4,2013-05-30 15:08:00,
2013-05-30 10:13:00,67.2,61.0,29.60,South,174,17.4,24.0,80,0.00,,,0.20,CWS Microserver 1.4,2013-05-30 15:13:00,
2013-05-30 10:18:00,67.1,60.0,29.60,South,171,18.5,24.5,77,0.00,,,0.20,CWS Microserver 1.4,2013-05-30 15:18:00,
2013-05-30 10:23:00,67.2,60.1,29.60,SSW,195,15.4,24.5,78,0.00,,,0.20,CWS Microserver 1.4,2013-05-30 15:23:00,
2013-05-30 10:33:00,68.0,60.8,29.60,SSE,160,19.3,23.7,77,0.00,,,0.20,CWS Microserver 1.4,2013-05-30 15:33:00,
2013-05-30 10:38:00,67.2,61.5,29.60,SSE,155,20.4,25.0,82,0.00,,,0.20,CWS Microserver 1.4,2013-05-30 15:38:00,
2013-05-30 10:43:00,67.4,60.6,29.60,SSE,162,19.1,25.0,78,0.00,,,0.20,CWS Microserver 1.4,2013-05-30 15:43:00,
2013-05-30 10:48:00,67.8,61.5,29.60,SSE,168,15.0,22.1,80,0.00,,,0.20,CWS Microserver 1.4,2013-05-30 15:48:00,
2013-05-30 10:53:00,68.0,60.9,29.60,South,171,10.2,22.0,78,0.00,,,0.20,CWS Microserver 1.4,2013-05-30 15:53:00,
2013-05-30 10:58:00,68.9,62.1,29.60,SSE,167,14.6,21.3,78,0.00,,,0.20,CWS Microserver 1.4,2013-05-30 15:58:00,
2013-05-30 11:03:00,69.0,61.4,29.60,SSE,160,20.1,23.2,76,0.00,,,0.20,CWS Microserver 1.4,2013-05-30 16:03:00,
2013-05-30 11:08:00,68.1,61.4,29.60,SSE,162,11.9,23.2,79,0.00,,,0.20,CWS Microserver 1.4,2013-05-30 16:08:00,
2013-05-30 11:13:00,68.5,61.7,29.60,South,179,13.9,21.8,78,0.00,,,0.20,CWS Microserver 1.4,2013-05-30 16:13:00,
2013-05-30 11:18:00,68.3,61.9,29.60,South,171,16.4,24.6,80,0.00,,,0.20,CWS Microserver 1.4,2013-05-30 16:18:00,
2013-05-30 11:28:00,68.0,61.3,29.60,SSE,162,21.1,25.3,79,0.00,,,0.20,CWS Microserver 1.4,2013-05-30 16:28:00,
2013-05-30 11:33:00,68.0,60.9,29.60,South,171,17.8,26.5,78,0.00,,,0.20,CWS Microserver 1.4,2013-05-30 16:33:00,
2013-05-30 11:38:00,67.8,61.0,29.60,SSE,164,16.9,26.5,78,0.00,,,0.20,CWS Microserver 1.4,2013-05-30 16:38:00,
2013-05-30 11:43:00,68.3,60.6,29.60,SSE,155,21.6,28.2,76,0.00,,,0.20,CWS Microserver 1.4,2013-05-30 16:43:00,
2013-05-30 11:48:00,68.0,60.7,29.60,South,172,14.0,28.2,77,0.00,,,0.20,CWS Microserver 1.4,2013-05-30 16:48:00,
2013-05-30 11:53:00,68.1,60.5,29.60,SSE,164,21.8,28.7,76,0.00,,,0.20,CWS Microserver 1.4,2013-05-30 16:53:00,
2013-05-30 11:58:00,68.1,60.8,29.60,SSE,166,15.8,28.7,77,0.00,,,0.20,CWS Microserver 1.4,2013-05-30 16:58:00,
2013-05-30 12:03:00,68.3,60.5,29.60,SSE,162,23.5,28.1,76,0.00,,,0.20,CWS Microserver 1.4,2013-05-30 17:03:00,
2013-05-30 12:08:00,68.1,60.5,29.60,SSE,161,23.2,28.1,76,0.00,,,0.20,CWS Microserver 1.4,2013-05-30 17:08:00,
2013-05-30 12:13:00,68.3,59.2,29.60,South,176,18.6,29.5,72,0.00,,,0.20,CWS Microserver 1.4,2013-05-30 17:13:00,
2013-05-30 12:18:00,68.0,60.8,29.60,SSE,162,14.8,29.5,77,0.00,,,0.20,CWS Microserver 1.4,2013-05-30 17:18:00,
2013-05-30 12:23:00,68.1,59.7,29.60,South,176,15.8,27.5,74,0.00,,,0.20,CWS Microserver 1.4,2013-05-30 17:23:00,
2013-05-30 12:28:00,68.5,61.4,29.60,South,169,22.7,27.5,78,0.00,,,0.20,CWS Microserver 1.4,2013-05-30 17:28:00,
2013-05-30 12:38:00,68.9,60.6,29.59,South,182,18.6,23.4,74,0.00,,,0.20,CWS Microserver 1.4,2013-05-30 17:38:00,
2013-05-30 12:48:00,69.0,59.8,29.59,South,179,20.1,25.6,72,0.00,,,0.20,CWS Microserver 1.4,2013-05-30 17:48:00,
2013-05-30 12:53:00,69.4,59.8,29.59,South,174,14.2,26.1,71,0.00,,,0.20,CWS Microserver 1.4,2013-05-30 17:53:00,
2013-05-30 12:58:00,69.8,58.9,29.59,South,183,12.1,26.1,68,0.00,,,0.20,CWS Microserver 1.4,2013-05-30 17:58:00,
2013-05-30 13:03:00,69.6,59.8,29.59,South,179,17.1,22.8,71,0.00,,,0.20,CWS Microserver 1.4,2013-05-30 18:03:00,
2013-05-30 13:08:00,69.8,59.6,29.59,South,180,12.3,22.8,70,0.00,,,0.20,CWS Microserver 1.4,2013-05-30 18:08:00,
2013-05-30 13:13:00,69.8,61.9,29.59,South,173,9.5,19.7,76,0.00,,,0.20,CWS Microserver 1.4,2013-05-30 18:13:00,
2013-05-30 13:18:00,69.6,59.9,29.59,South,174,12.4,19.7,71,0.00,,,0.20,CWS Microserver 1.4,2013-05-30 18:18:00,
2013-05-30 13:23:00,69.8,60.5,29.59,South,179,12.9,19.8,72,0.00,,,0.20,CWS Microserver 1.4,2013-05-30 18:23:00,
2013-05-30 13:28:00,69.6,59.8,29.59,South,177,20.6,21.9,71,0.00,,,0.20,CWS Microserver 1.4,2013-05-30 18:28:00,
2013-05-30 13:33:00,69.2,60.2,29.59,South,171,16.2,25.4,73,0.00,,,0.20,CWS Microserver 1.4,2013-05-30 18:33:00,
2013-05-30 13:38:00,68.7,60.1,29.59,South,185,12.4,25.4,74,0.00,,,0.20,CWS Microserver 1.4,2013-05-30 18:38:00,
2013-05-30 13:43:00,68.3,59.6,29.59,South,173,17.1,25.0,73,0.00,,,0.20,CWS Microserver 1.4,2013-05-30 18:43:00,
2013-05-30 13:48:00,68.1,59.5,29.59,SSE,168,20.1,25.0,74,0.00,,,0.20,CWS Microserver 1.4,2013-05-30 18:48:00,
2013-05-30 13:53:00,68.1,60.2,29.59,South,176,16.6,24.1,76,0.00,,,0.20,CWS Microserver 1.4,2013-05-30 18:53:00,
2013-05-30 13:58:00,68.1,60.6,29.59,SSE,162,16.5,24.4,76,0.00,,,0.20,CWS Microserver 1.4,2013-05-30 18:58:00,
2013-05-30 14:03:00,68.1,61.0,29.59,SSE,156,18.7,24.4,78,0.00,,,0.20,CWS Microserver 1.4,2013-05-30 19:03:00,
2013-05-30 14:08:00,68.1,60.4,29.58,SSE,164,15.2,23.5,76,0.00,,,0.20,CWS Microserver 1.4,2013-05-30 19:08:00,
2013-05-30 14:13:00,68.7,61.3,29.58,South,169,17.0,23.5,77,0.00,,,0.20,CWS Microserver 1.4,2013-05-30 19:13:00,
2013-05-30 14:18:00,68.9,60.5,29.58,SSE,152,18.2,22.9,74,0.00,,,0.20,CWS Microserver 1.4,2013-05-30 19:18:00,
2013-05-30 14:23:00,68.0,59.9,29.57,SSE,156,22.1,25.8,75,0.00,,,0.20,CWS Microserver 1.4,2013-05-30 19:23:00,
2013-05-30 14:28:00,67.8,60.0,29.57,SE,141,16.2,25.8,76,0.00,,,0.20,CWS Microserver 1.4,2013-05-30 19:28:00,
2013-05-30 14:33:00,67.8,60.6,29.58,SSE,161,19.6,22.3,77,0.00,,,0.20,CWS Microserver 1.4,2013-05-30 19:33:00,
2013-05-30 14:38:00,67.6,60.6,29.58,South,191,11.7,26.5,78,0.00,,,0.20,CWS Microserver 1.4,2013-05-30 19:38:00,
2013-05-30 14:43:00,66.3,59.5,29.58,South,171,17.8,26.9,78,0.00,,,0.20,CWS Microserver 1.4,2013-05-30 19:43:00,
2013-05-30 14:48:00,64.5,58.0,29.59,South,190,20.0,26.9,79,0.03,,,0.23,CWS Microserver 1.4,2013-05-30 19:48:00,
2013-05-30 14:53:00,63.6,58.5,29.58,South,189,14.2,23.8,83,0.04,,,0.24,CWS Microserver 1.4,2013-05-30 19:53:00,
2013-05-30 14:58:00,63.3,58.8,29.58,South,183,13.4,23.8,85,0.05,,,0.25,CWS Microserver 1.4,2013-05-30 19:58:00,
2013-05-30 15:03:00,63.1,58.4,29.58,South,181,13.9,20.5,84,0.05,,,0.25,CWS Microserver 1.4,2013-05-30 20:03:00,
2013-05-30 15:08:00,63.1,58.4,29.58,South,184,11.2,19.9,84,0.05,,,0.25,CWS Microserver 1.4,2013-05-30 20:08:00,
2013-05-30 15:13:00,63.5,58.3,29.58,SSE,164,11.8,19.9,83,0.05,,,0.25,CWS Microserver 1.4,2013-05-30 20:13:00,
2013-05-30 15:18:00,63.6,59.0,29.57,SSE,163,13.2,16.8,84,0.05,,,0.25,CWS Microserver 1.4,2013-05-30 20:18:00,
2013-05-30 15:23:00,64.0,60.1,29.57,SSE,154,12.7,18.6,87,0.05,,,0.25,CWS Microserver 1.4,2013-05-30 20:23:00,
2013-05-30 15:28:00,64.2,60.4,29.56,SSW,197,7.8,18.6,87,0.05,,,0.25,CWS Microserver 1.4,2013-05-30 20:28:00,
2013-05-30 15:33:00,64.4,59.8,29.56,South,170,9.0,20.4,85,0.05,,,0.25,CWS Microserver 1.4,2013-05-30 20:33:00,
2013-05-30 15:38:00,64.7,60.3,29.56,SSE,158,14.4,20.4,85,0.05,,,0.25,CWS Microserver 1.4,2013-05-30 20:38:00,
2013-05-30 15:43:00,65.3,60.3,29.56,South,176,9.6,19.6,84,0.05,,,0.25,CWS Microserver 1.4,2013-05-30 20:43:00,
2013-05-30 15:48:00,65.6,60.2,29.55,SSE,150,17.4,20.6,82,0.02,,,0.25,CWS Microserver 1.4,2013-05-30 20:48:00,
2013-05-30 15:53:00,65.8,60.2,29.56,SSE,164,13.0,22.6,82,0.01,,,0.25,CWS Microserver 1.4,2013-05-30 20:53:00,
2013-05-30 15:58:00,66.5,60.3,29.56,SSE,164,13.3,22.6,80,0.00,,,0.25,CWS Microserver 1.4,2013-05-30 20:58:00,
2013-05-30 16:03:00,66.7,61.1,29.55,SSE,165,5.7,19.9,82,0.00,,,0.25,CWS Microserver 1.4,2013-05-30 21:03:00,
2013-05-30 16:08:00,67.1,60.2,29.55,South,179,9.8,18.2,78,0.00,,,0.25,CWS Microserver 1.4,2013-05-30 21:08:00,
2013-05-30 16:13:00,67.2,60.0,29.55,South,186,11.6,18.2,77,0.00,,,0.25,CWS Microserver 1.4,2013-05-30 21:13:00,
2013-05-30 16:18:00,67.8,61.0,29.55,South,171,14.2,18.7,78,0.00,,,0.25,CWS Microserver 1.4,2013-05-30 21:18:00,
2013-05-30 16:23:00,67.8,59.7,29.55,SSW,196,13.9,20.9,75,0.00,,,0.25,CWS Microserver 1.4,2013-05-30 21:23:00,
2013-05-30 16:28:00,67.6,58.5,29.55,South,184,12.4,22.0,72,0.00,,,0.25,CWS Microserver 1.4,2013-05-30 21:28:00,
2013-05-30 16:33:00,68.0,59.5,29.55,South,177,15.0,22.0,74,0.00,,,0.25,CWS Microserver 1.4,2013-05-30 21:33:00,
2013-05-30 16:38:00,68.3,59.4,29.55,South,189,11.2,22.4,73,0.00,,,0.25,CWS Microserver 1.4,2013-05-30 21:38:00,
2013-05-30 16:43:00,68.7,59.2,29.55,South,182,18.2,22.4,71,0.00,,,0.25,CWS Microserver 1.4,2013-05-30 21:43:00,
2013-05-30 16:48:00,68.9,59.9,29.55,South,187,14.2,21.1,73,0.00,,,0.25,CWS Microserver 1.4,2013-05-30 21:48:00,
2013-05-30 16:53:00,69.0,60.0,29.55,SSE,163,13.9,20.2,73,0.00,,,0.25,CWS Microserver 1.4,2013-05-30 21:53:00,
2013-05-30 16:58:00,68.9,60.5,29.55,South,184,9.7,20.2,74,0.00,,,0.25,CWS Microserver 1.4,2013-05-30 21:58:00,
2013-05-30 17:03:00,68.5,60.0,29.55,South,186,14.4,18.7,74,0.00,,,0.25,CWS Microserver 1.4,2013-05-30 22:03:00,
2013-05-30 17:08:00,68.7,59.6,29.55,South,180,16.1,21.6,72,0.00,,,0.25,CWS Microserver 1.4,2013-05-30 22:08:00,
2013-05-30 17:13:00,68.9,60.0,29.55,South,182,10.6,21.6,73,0.00,,,0.25,CWS Microserver 1.4,2013-05-30 22:13:00,
2013-05-30 17:18:00,69.2,60.7,29.55,SSE,153,17.2,20.9,74,0.00,,,0.25,CWS Microserver 1.4,2013-05-30 22:18:00,
2013-05-30 17:23:00,68.9,60.7,29.55,South,170,7.9,22.7,75,0.00,,,0.25,CWS Microserver 1.4,2013-05-30 22:23:00,
2013-05-30 17:28:00,69.0,60.3,29.55,South,180,12.3,22.7,73,0.00,,,0.25,CWS Microserver 1.4,2013-05-30 22:28:00,
2013-05-30 17:33:00,69.2,60.5,29.55,South,179,11.9,17.4,74,0.00,,,0.25,CWS Microserver 1.4,2013-05-30 22:33:00,
2013-05-30 17:38:00,69.2,61.0,29.54,SSW,201,9.8,18.9,75,0.00,,,0.25,CWS Microserver 1.4,2013-05-30 22:38:00,
2013-05-30 17:43:00,69.4,60.2,29.54,SSE,166,19.2,22.7,72,0.00,,,0.25,CWS Microserver 1.4,2013-05-30 22:43:00,
2013-05-30 17:48:00,69.2,60.2,29.54,SSE,159,12.0,22.7,73,0.00,,,0.25,CWS Microserver 1.4,2013-05-30 22:48:00,
2013-05-30 17:53:00,69.2,59.4,29.54,South,188,11.9,19.2,71,0.00,,,0.25,CWS Microserver 1.4,2013-05-30 22:53:00,
2013-05-30 17:58:00,69.8,60.1,29.54,South,173,12.0,18.8,71,0.00,,,0.25,CWS Microserver 1.4,2013-05-30 22:58:00,
2013-05-30 18:03:00,69.8,60.4,29.54,South,175,12.4,19.0,72,0.00,,,0.25,CWS Microserver 1.4,2013-05-30 23:03:00,
2013-05-30 18:08:00,69.8,59.9,29.53,South,177,10.6,21.3,70,0.00,,,0.25,CWS Microserver 1.4,2013-05-30 23:08:00,
2013-05-30 18:13:00,69.6,59.0,29.53,South,176,17.8,21.3,69,0.00,,,0.25,CWS Microserver 1.4,2013-05-30 23:13:00,
2013-05-30 18:18:00,69.4,59.5,29.53,SSW,204,9.8,18.5,70,0.00,,,0.25,CWS Microserver 1.4,2013-05-30 23:18:00,
2013-05-30 18:23:00,69.4,59.9,29.53,South,186,11.9,18.5,71,0.00,,,0.25,CWS Microserver 1.4,2013-05-30 23:23:00,
2013-05-30 18:28:00,69.2,59.8,29.53,South,182,10.1,17.1,72,0.00,,,0.25,CWS Microserver 1.4,2013-05-30 23:28:00,
2013-05-30 18:33:00,69.0,59.7,29.53,South,184,11.2,21.3,72,0.00,,,0.25,CWS Microserver 1.4,2013-05-30 23:33:00,
2013-05-30 18:38:00,68.7,60.3,29.53,SSE,163,15.4,21.3,74,0.00,,,0.25,CWS Microserver 1.4,2013-05-30 23:38:00,
2013-05-30 18:43:00,68.5,60.4,29.53,South,180,11.2,18.6,75,0.00,,,0.25,CWS Microserver 1.4,2013-05-30 23:43:00,
2013-05-30 18:48:00,68.3,60.3,29.54,South,184,14.6,18.6,75,0.00,,,0.25,CWS Microserver 1.4,2013-05-30 23:48:00,
2013-05-30 18:53:00,68.3,59.8,29.54,South,184,17.2,20.7,74,0.00,,,0.25,CWS Microserver 1.4,2013-05-30 23:53:00,
2013-05-30 18:58:00,68.1,59.8,29.54,South,179,13.3,20.7,74,0.00,,,0.25,CWS Microserver 1.4,2013-05-30 23:58:00,
2013-05-30 19:03:00,68.1,59.9,29.54,South,179,8.4,20.0,75,0.00,,,0.25,CWS Microserver 1.4,2013-05-31 00:03:00,
2013-05-30 19:08:00,68.0,60.1,29.54,South,179,8.9,18.7,76,0.00,,,0.25,CWS Microserver 1.4,2013-05-31 00:08:00,
2013-05-30 19:13:00,67.8,60.1,29.54,South,172,13.6,18.7,76,0.00,,,0.25,CWS Microserver 1.4,2013-05-31 00:13:00,
2013-05-30 19:18:00,67.6,60.3,29.55,SSE,166,8.2,17.9,77,0.00,,,0.25,CWS Microserver 1.4,2013-05-31 00:18:00,
2013-05-30 19:23:00,67.6,60.4,29.55,SSE,168,7.6,18.0,77,0.00,,,0.25,CWS Microserver 1.4,2013-05-31 00:23:00,
2013-05-30 19:28:00,67.4,60.6,29.54,SSE,161,10.4,18.0,78,0.00,,,0.25,CWS Microserver 1.4,2013-05-31 00:28:00,
2013-05-30 19:33:00,67.2,60.7,29.54,SSE,163,10.9,15.3,79,0.00,,,0.25,CWS Microserver 1.4,2013-05-31 00:33:00,
2013-05-30 19:38:00,67.1,60.8,29.54,South,170,14.3,15.3,80,0.00,,,0.25,CWS Microserver 1.4,2013-05-31 00:38:00,
2013-05-30 19:43:00,67.1,60.9,29.54,South,172,12.6,15.6,80,0.00,,,0.25,CWS Microserver 1.4,2013-05-31 00:43:00,
2013-05-30 19:48:00,66.9,60.4,29.54,SSE,165,12.1,15.6,79,0.00,,,0.25,CWS Microserver 1.4,2013-05-31 00:48:00,
2013-05-30 19:53:00,66.9,60.5,29.54,SSE,167,6.6,15.6,79,0.00,,,0.25,CWS Microserver 1.4,2013-05-31 00:53:00,
2013-05-30 19:58:00,66.7,60.6,29.54,SSE,163,12.7,15.1,80,0.00,,,0.25,CWS Microserver 1.4,2013-05-31 00:58:00,
2013-05-30 20:03:00,66.5,60.7,29.54,SSE,164,14.1,14.8,81,0.00,,,0.25,CWS Microserver 1.4,2013-05-31 01:03:00,
2013-05-30 20:08:00,66.3,60.8,29.54,SSE,168,8.5,15.5,82,0.00,,,0.25,CWS Microserver 1.4,2013-05-31 01:08:00,
2013-05-30 20:13:00,66.3,60.9,29.54,SSE,160,6.9,16.3,82,0.00,,,0.25,CWS Microserver 1.4,2013-05-31 01:13:00,
2013-05-30 20:18:00,66.3,60.9,29.55,SSE,162,10.9,16.3,82,0.00,,,0.25,CWS Microserver 1.4,2013-05-31 01:18:00,
2013-05-30 20:23:00,66.2,61.1,29.55,SSE,161,11.1,16.6,83,0.00,,,0.25,CWS Microserver 1.4,2013-05-31 01:23:00,
2013-05-30 20:28:00,66.0,60.9,29.55,SSE,161,12.0,16.6,83,0.00,,,0.25,CWS Microserver 1.4,2013-05-31 01:28:00,
2013-05-30 20:33:00,66.0,60.8,29.55,SSE,156,12.1,16.1,83,0.00,,,0.25,CWS Microserver 1.4,2013-05-31 01:33:00,
2013-05-30 20:38:00,65.8,60.6,29.55,SSE,149,12.7,16.1,83,0.00,,,0.25,CWS Microserver 1.4,2013-05-31 01:38:00,
2013-05-30 20:43:00,65.8,60.6,29.55,SSE,153,11.2,16.0,83,0.00,,,0.25,CWS Microserver 1.4,2013-05-31 01:43:00,
2013-05-30 20:48:00,65.8,60.6,29.55,SSE,163,12.4,16.5,83,0.00,,,0.25,CWS Microserver 1.4,2013-05-31 01:48:00,
2013-05-30 20:53:00,65.6,60.6,29.55,SSE,165,14.8,16.5,83,0.00,,,0.25,CWS Microserver 1.4,2013-05-31 01:53:00,
2013-05-30 20:58:00,65.6,60.5,29.55,SSE,162,8.5,17.4,83,0.00,,,0.25,CWS Microserver 1.4,2013-05-31 01:58:00,
2013-05-30 21:03:00,65.8,60.6,29.55,SSE,156,12.3,18.8,83,0.00,,,0.25,CWS Microserver 1.4,2013-05-31 02:03:00,
2013-05-30 21:08:00,65.6,60.3,29.55,SSE,164,12.9,18.8,83,0.00,,,0.25,CWS Microserver 1.4,2013-05-31 02:08:00,
2013-05-30 21:13:00,65.6,60.2,29.55,South,184,12.0,21.0,82,0.00,,,0.25,CWS Microserver 1.4,2013-05-31 02:13:00,
2013-05-30 21:18:00,65.6,60.3,29.54,SSE,165,14.3,21.0,83,0.00,,,0.25,CWS Microserver 1.4,2013-05-31 02:18:00,
2013-05-30 21:23:00,65.6,60.3,29.54,SSE,168,11.9,20.6,83,0.00,,,0.25,CWS Microserver 1.4,2013-05-31 02:23:00,
2013-05-30 21:28:00,65.3,60.3,29.54,SSE,164,13.3,19.6,83,0.00,,,0.25,CWS Microserver 1.4,2013-05-31 02:28:00,
2013-05-30 21:33:00,65.3,60.3,29.54,South,186,7.9,18.1,84,0.00,,,0.25,CWS Microserver 1.4,2013-05-31 02:33:00,
2013-05-30 21:38:00,65.3,60.4,29.55,South,174,11.0,18.6,84,0.00,,,0.25,CWS Microserver 1.4,2013-05-31 02:38:00,
2013-05-30 21:43:00,65.1,60.4,29.55,South,179,9.9,18.6,84,0.00,,,0.25,CWS Microserver 1.4,2013-05-31 02:43:00,
2013-05-30 21:48:00,64.9,60.2,29.55,South,178,11.9,18.0,84,0.00,,,0.25,CWS Microserver 1.4,2013-05-31 02:48:00,
2013-05-30 21:53:00,65.3,60.4,29.55,South,174,7.0,18.0,84,0.00,,,0.25,CWS Microserver 1.4,2013-05-31 02:53:00,
2013-05-30 21:58:00,65.3,60.3,29.55,South,176,13.6,22.6,84,0.00,,,0.25,CWS Microserver 1.4,2013-05-31 02:58:00,
2013-05-30 22:03:00,65.1,60.1,29.56,South,169,11.5,22.6,84,0.00,,,0.25,CWS Microserver 1.4,2013-05-31 03:03:00,
2013-05-30 22:08:00,65.1,60.1,29.55,South,191,12.5,17.5,83,0.00,,,0.25,CWS Microserver 1.4,2013-05-31 03:08:00,
2013-05-30 22:18:00,64.9,60.0,29.55,SSE,164,11.0,18.4,84,0.00,,,0.25,CWS Microserver 1.4,2013-05-31 03:18:00,
2013-05-30 22:23:00,64.9,59.9,29.55,South,169,9.4,17.2,83,0.00,,,0.25,CWS Microserver 1.4,2013-05-31 03:23:00,
2013-05-30 22:28:00,64.7,59.8,29.56,South,176,15.6,17.2,84,0.00,,,0.25,CWS Microserver 1.4,2013-05-31 03:28:00,
2013-05-30 22:33:00,64.5,59.5,29.56,South,183,10.2,17.6,84,0.00,,,0.25,CWS Microserver 1.4,2013-05-31 03:33:00,
2013-05-30 22:38:00,64.9,59.7,29.56,South,180,11.9,18.2,83,0.00,,,0.25,CWS Microserver 1.4,2013-05-31 03:38:00,
2013-05-30 22:43:00,64.9,59.6,29.56,South,179,13.7,20.7,83,0.00,,,0.25,CWS Microserver 1.4,2013-05-31 03:43:00,
2013-05-30 22:48:00,64.9,59.5,29.56,South,173,9.0,20.7,82,0.00,,,0.25,CWS Microserver 1.4,2013-05-31 03:48:00,
2013-05-30 22:53:00,65.1,59.6,29.56,SSW,199,10.6,20.7,82,0.00,,,0.25,CWS Microserver 1.4,2013-05-31 03:53:00,
2013-05-30 22:58:00,65.1,59.6,29.56,South,186,12.7,20.7,82,0.00,,,0.25,CWS Microserver 1.4,2013-05-31 03:58:00,
2013-05-30 23:03:00,65.1,59.5,29.56,South,188,9.8,20.5,82,0.00,,,0.25,CWS Microserver 1.4,2013-05-31 04:03:00,
2013-05-30 23:08:00,65.1,59.4,29.56,South,182,14.0,18.9,81,0.00,,,0.25,CWS Microserver 1.4,2013-05-31 04:08:00,
2013-05-30 23:13:00,65.1,59.3,29.56,SSW,195,10.3,20.1,81,0.00,,,0.25,CWS Microserver 1.4,2013-05-31 04:13:00,
2013-05-30 23:18:00,65.3,59.3,29.56,SSW,201,16.1,20.1,81,0.00,,,0.25,CWS Microserver 1.4,2013-05-31 04:18:00,
2013-05-30 23:23:00,65.3,59.4,29.56,SSW,197,10.2,19.1,81,0.00,,,0.25,CWS Microserver 1.4,2013-05-31 04:23:00,
2013-05-30 23:28:00,65.3,59.4,29.57,South,191,10.6,19.1,81,0.00,,,0.25,CWS Microserver 1.4,2013-05-31 04:28:00,
2013-05-30 23:33:00,65.3,59.4,29.57,South,175,16.1,18.9,81,0.00,,,0.25,CWS Microserver 1.4,2013-05-31 04:33:00,
2013-05-30 23:38:00,65.4,59.1,29.58,SSW,208,16.9,27.3,80,0.00,,,0.25,CWS Microserver 1.4,2013-05-31 04:38:00,
2013-05-30 23:43:00,65.4,54.6,29.59,SW,233,15.8,31.6,68,0.02,,,0.27,CWS Microserver 1.4,2013-05-31 04:43:00,
2013-05-30 23:48:00,61.8,51.5,29.59,West,259,16.3,31.6,68,0.07,,,0.32,CWS Microserver 1.4,2013-05-31 04:48:00,
2013-05-30 23:53:00,60.4,51.7,29.59,SW,236,10.1,31.1,73,0.08,,,0.00,CWS Microserver 1.4,2013-05-31 04:53:00,
2013-05-30 23:58:00,59.7,51.8,29.59,SW,229,11.7,24.2,75,0.08,,,0.00,CWS Microserver 1.4,2013-05-31 04:58:00,